createdAt,value
2023-04-25T00:00:01.056Z,3.90
2023-04-25T00:02:29.388Z,5.20
2023-04-25T00:05:00.277Z,4.37
2023-04-25T00:07:28.464Z,3.37
2023-04-25T00:09:56.563Z,4.23
2023-04-25T00:12:24.900Z,4.67
2023-04-25T00:14:53.860Z,3.30
2023-04-25T00:17:22.901Z,4.40
2023-04-25T00:19:50.957Z,5.50
2023-04-25T00:22:20.762Z,4.03
2023-04-25T00:24:48.817Z,3.27
2023-04-25T00:27:16.922Z,4.23
2023-04-25T00:29:45.016Z,4.10
2023-04-25T00:32:13.004Z,3.97
2023-04-25T00:34:41.112Z,3.90
2023-04-25T00:37:09.199Z,5.90
2023-04-25T00:39:38.616Z,4.83
2023-04-25T00:42:07.562Z,4.43
2023-04-25T00:44:36.394Z,5.27
2023-04-25T00:47:04.671Z,3.20
2023-04-25T00:49:32.908Z,3.90
2023-04-25T00:52:01.211Z,3.60
2023-04-25T00:54:29.484Z,7.47
2023-04-25T00:56:59.566Z,3.73
2023-04-25T00:59:28.297Z,3.90
2023-04-25T01:01:56.606Z,6.17
2023-04-25T01:04:24.768Z,4.33
2023-04-25T01:06:53.624Z,5.25
2023-04-25T01:09:22.070Z,4.27
2023-04-25T01:11:50.721Z,4.10
2023-04-25T01:14:20.301Z,4.97
2023-04-25T01:16:49.215Z,5.93
2023-04-25T01:19:19.577Z,5.07
2023-04-25T01:21:49.289Z,3.93
2023-04-25T01:24:17.875Z,4.90
2023-04-25T01:26:50.507Z,5.53
2023-04-25T01:29:19.248Z,4.30
2023-04-25T01:31:47.857Z,3.27
2023-04-25T01:34:16.100Z,4.00
2023-04-25T01:36:45.385Z,4.40
2023-04-25T01:39:15.106Z,4.90
2023-04-25T01:41:43.183Z,5.70
2023-04-25T01:44:11.203Z,3.53
2023-04-25T01:46:39.517Z,5.93
2023-04-25T01:49:07.821Z,4.83
2023-04-25T01:51:36.111Z,4.97
2023-04-25T01:54:04.438Z,4.63
2023-04-25T01:56:34.155Z,4.40
2023-04-25T01:59:02.512Z,4.73
2023-04-25T02:01:30.512Z,4.73
2023-04-25T02:03:58.728Z,5.57
2023-04-25T02:06:26.902Z,5.37
2023-04-25T02:08:54.954Z,4.37
2023-04-25T02:11:22.987Z,6.10
2023-04-25T02:13:52.595Z,4.30
2023-04-25T02:16:21.757Z,4.30
2023-04-25T02:18:49.932Z,3.80
2023-04-25T02:21:17.935Z,5.57
2023-04-25T02:23:49.975Z,4.50
2023-04-25T02:26:18.282Z,4.97
2023-04-25T02:28:46.289Z,5.57
2023-04-25T02:31:15.939Z,5.07
2023-04-25T02:33:44.095Z,5.13
2023-04-25T02:36:12.264Z,4.57
2023-04-25T02:38:40.760Z,3.43
2023-04-25T02:41:08.871Z,4.97
2023-04-25T02:43:36.861Z,3.97
2023-04-25T02:46:05.437Z,4.20
2023-04-25T02:48:34.852Z,4.83
2023-04-25T02:51:02.818Z,5.90
2023-04-25T02:53:30.786Z,4.57
2023-04-25T02:56:00.186Z,5.57
2023-04-25T02:58:28.275Z,7.23
2023-04-25T03:00:56.597Z,5.53
2023-04-25T03:03:24.912Z,3.97
2023-04-25T03:05:54.561Z,4.50
2023-04-25T03:08:22.582Z,4.40
2023-04-25T03:10:51.311Z,4.87
2023-04-25T03:13:19.343Z,4.50
2023-04-25T03:15:47.437Z,6.53
2023-04-25T03:18:15.444Z,4.63
2023-04-25T03:20:43.983Z,4.03
2023-04-25T03:23:13.380Z,4.80
2023-04-25T03:25:41.486Z,3.63
2023-04-25T03:28:09.508Z,3.60
2023-04-25T03:30:37.493Z,4.20
2023-04-25T03:33:05.581Z,5.00
2023-04-25T03:35:33.636Z,3.40
2023-04-25T03:38:01.735Z,4.00
2023-04-25T03:40:31.142Z,5.03
2023-04-25T03:42:59.274Z,5.10
2023-04-25T03:45:27.402Z,5.37
2023-04-25T03:47:55.481Z,5.17
2023-04-25T03:50:23.594Z,6.43
2023-04-25T03:52:51.919Z,4.03
2023-04-25T03:55:20.959Z,4.53
2023-04-25T03:57:50.290Z,4.83
2023-04-25T04:00:18.379Z,4.20
2023-04-25T04:02:46.524Z,3.90
2023-04-25T04:05:14.688Z,5.27
2023-04-25T04:07:43.707Z,3.67
2023-04-25T04:10:12.928Z,5.43
2023-04-25T04:12:41.335Z,4.93
2023-04-25T04:15:12.046Z,5.23
2023-04-25T04:17:40.127Z,5.83
2023-04-25T04:20:09.694Z,5.93
2023-04-25T04:22:37.905Z,7.80
2023-04-25T04:25:07.527Z,4.30
2023-04-25T04:27:35.869Z,7.37
2023-04-25T04:30:04.302Z,5.40
2023-04-25T04:32:35.688Z,4.87
2023-04-25T04:35:04.635Z,3.70
2023-04-25T04:37:33.699Z,5.70
2023-04-25T04:40:06.073Z,3.73
2023-04-25T04:42:34.121Z,5.43
2023-04-25T04:45:02.589Z,5.07
2023-04-25T04:47:33.454Z,4.77
2023-04-25T04:50:02.849Z,3.63
2023-04-25T04:52:30.860Z,6.17
2023-04-25T04:54:58.944Z,4.43
2023-04-25T04:57:27.725Z,5.87
2023-04-25T04:59:55.767Z,8.07
2023-04-25T05:02:24.083Z,5.70
2023-04-25T05:04:52.729Z,7.87
2023-04-25T05:07:22.137Z,4.33
2023-04-25T05:09:50.139Z,5.07
2023-04-25T05:12:18.163Z,4.60
2023-04-25T05:14:46.369Z,4.73
2023-04-25T05:17:14.410Z,4.97
2023-04-25T05:19:42.560Z,4.40
2023-04-25T05:22:10.653Z,5.33
2023-04-25T05:24:40.139Z,5.87
2023-04-25T05:27:08.190Z,3.30
2023-04-25T05:29:36.335Z,3.43
2023-04-25T05:32:04.943Z,3.63
2023-04-25T05:34:33.059Z,3.23
2023-04-25T05:37:01.170Z,3.07
2023-04-25T05:39:29.285Z,3.23
2023-04-25T05:41:58.693Z,5.03
2023-04-25T05:44:27.556Z,4.20
2023-04-25T05:46:56.449Z,3.20
2023-04-25T05:49:24.637Z,2.87
2023-04-25T05:51:52.641Z,4.70
2023-04-25T05:54:20.708Z,4.70
2023-04-25T05:56:48.784Z,5.57
2023-04-25T05:59:18.211Z,2.90
2023-04-25T06:01:46.519Z,3.67
2023-04-25T06:04:14.837Z,4.60
2023-04-25T06:06:43.142Z,3.60
2023-04-25T06:09:13.335Z,6.03
2023-04-25T06:11:42.323Z,3.77
2023-04-25T06:14:10.356Z,5.03
2023-04-25T06:16:39.708Z,5.43
2023-04-25T06:19:07.689Z,4.57
2023-04-25T06:21:35.671Z,2.97
2023-04-25T06:24:03.711Z,2.87
2023-04-25T06:26:31.689Z,3.93
2023-04-25T06:28:59.682Z,3.07
2023-04-25T06:31:27.765Z,5.10
2023-04-25T06:33:57.405Z,5.97
2023-04-25T06:36:26.163Z,5.10
2023-04-25T06:38:54.420Z,5.20
2023-04-25T06:41:22.657Z,5.73
2023-04-25T06:43:50.697Z,5.70
2023-04-25T06:46:18.800Z,3.87
2023-04-25T06:48:46.900Z,7.53
2023-04-25T06:51:16.362Z,4.77
2023-04-25T06:53:44.376Z,5.30
2023-04-25T06:56:12.834Z,4.80
2023-04-25T06:58:40.907Z,6.60
2023-04-25T07:01:09.878Z,4.77
2023-04-25T07:03:39.190Z,4.70
2023-04-25T07:06:07.875Z,4.73
2023-04-25T07:08:37.341Z,6.30
2023-04-25T07:11:05.589Z,5.40
2023-04-25T07:13:33.626Z,5.27
2023-04-25T07:16:02.134Z,5.47
2023-04-25T07:18:30.250Z,5.27
2023-04-25T07:20:58.338Z,6.60
2023-04-25T07:23:26.339Z,8.43
2023-04-25T07:25:55.845Z,5.50
2023-04-25T07:28:26.039Z,7.40
2023-04-25T07:30:54.060Z,7.40
2023-04-25T07:33:22.450Z,4.37
2023-04-25T07:35:51.270Z,5.80
2023-04-25T07:38:19.467Z,7.00
2023-04-25T07:40:47.459Z,8.67
2023-04-25T07:43:17.841Z,5.07
2023-04-25T07:45:46.613Z,6.53
2023-04-25T07:48:19.524Z,4.27
2023-04-25T07:50:47.594Z,3.83
2023-04-25T07:53:15.586Z,6.23
2023-04-25T07:55:43.748Z,4.43
2023-04-25T07:58:13.737Z,5.73
2023-04-25T08:00:43.784Z,5.10
2023-04-25T08:03:12.684Z,8.17
2023-04-25T08:05:41.046Z,6.57
2023-04-25T08:08:09.229Z,6.27
2023-04-25T08:10:37.176Z,5.77
2023-04-25T08:13:05.464Z,5.70
2023-04-25T08:15:33.475Z,4.37
2023-04-25T08:18:02.985Z,4.77
2023-04-25T08:20:31.441Z,4.60
2023-04-25T08:22:59.472Z,3.27
2023-04-25T08:25:27.495Z,3.40
2023-04-25T08:27:55.791Z,3.17
2023-04-25T08:30:23.921Z,3.67
2023-04-25T08:32:52.108Z,2.80
2023-04-25T08:35:22.764Z,4.70
2023-04-25T08:37:51.148Z,3.07
2023-04-25T08:40:19.203Z,4.60
2023-04-25T08:42:49.302Z,3.07
2023-04-25T08:45:17.321Z,2.55
2023-04-25T08:47:49.776Z,4.25
2023-04-25T08:50:20.790Z,3.72
2023-04-25T08:52:53.536Z,3.60
2023-04-25T08:55:23.516Z,2.70
2023-04-25T08:57:52.541Z,3.42
2023-04-25T09:00:21.103Z,2.85
2023-04-25T09:02:49.688Z,2.53
2023-04-25T09:05:20.210Z,2.83
2023-04-25T09:07:50.977Z,2.40
2023-04-25T09:10:19.269Z,7.37
2023-04-25T09:12:55.189Z,2.57
2023-04-25T09:15:23.208Z,5.03
2023-04-25T09:17:57.790Z,5.97
2023-04-25T09:20:26.068Z,6.60
2023-04-25T09:23:06.061Z,6.83
2023-04-25T09:25:39.821Z,3.83
2023-04-25T09:28:08.957Z,3.80
2023-04-25T09:30:38.271Z,5.00
2023-04-25T09:33:08.813Z,2.60
2023-04-25T09:35:40.800Z,4.27
2023-04-25T09:38:15.376Z,3.33
2023-04-25T09:40:46.098Z,3.43
2023-04-25T09:43:22.201Z,3.97
2023-04-25T09:45:52.755Z,4.83
2023-04-25T09:48:21.959Z,2.53
2023-04-25T09:51:06.922Z,5.67
2023-04-25T09:53:37.540Z,5.07
2023-04-25T09:56:07.753Z,3.37
2023-04-25T09:58:37.227Z,3.20
2023-04-25T10:01:06.920Z,1.90
2023-04-25T10:03:37.077Z,2.43
2023-04-25T10:06:10.194Z,1.93
2023-04-25T10:08:41.207Z,3.50
2023-04-25T10:11:10.513Z,6.03
2023-04-25T10:13:38.863Z,2.57
2023-04-25T10:16:07.802Z,2.37
2023-04-25T10:18:36.068Z,2.47
2023-04-25T10:21:06.905Z,3.83
2023-04-25T10:23:36.206Z,2.43
2023-04-25T10:26:05.861Z,2.93
2023-04-25T10:28:59.644Z,2.40
2023-04-25T10:31:28.046Z,3.03
2023-04-25T10:33:56.632Z,3.37
2023-04-25T10:36:26.515Z,3.37
2023-04-25T10:38:55.402Z,2.87
2023-04-25T10:41:24.835Z,2.90
2023-04-25T10:44:02.564Z,2.30
2023-04-25T10:46:31.903Z,2.63
2023-04-25T10:49:02.149Z,1.87
2023-04-25T10:51:40.081Z,4.13
2023-04-25T10:54:21.054Z,2.57
2023-04-25T10:56:52.282Z,2.97
2023-04-25T10:59:22.446Z,2.60
2023-04-25T11:01:54.064Z,3.30
2023-04-25T11:04:23.574Z,2.60
2023-04-25T11:07:07.187Z,2.00
2023-04-25T11:09:52.721Z,2.30
2023-04-25T11:12:22.289Z,4.33
2023-04-25T11:14:50.337Z,3.33
2023-04-25T11:17:18.412Z,2.77
2023-04-25T11:19:50.200Z,3.17
2023-04-25T11:22:18.328Z,6.93
2023-04-25T11:24:47.866Z,14.90
2023-04-25T11:27:15.986Z,10.63
2023-04-25T11:29:45.442Z,5.03
2023-04-25T11:32:14.134Z,5.00
2023-04-25T11:34:46.223Z,4.43
2023-04-25T11:37:14.654Z,3.03
2023-04-25T11:39:47.059Z,2.47
2023-04-25T11:42:15.365Z,3.87
2023-04-25T11:44:43.491Z,3.17
2023-04-25T11:47:12.969Z,3.37
2023-04-25T11:49:41.191Z,2.97
2023-04-25T11:52:09.906Z,5.00
2023-04-25T11:54:39.011Z,3.73
2023-04-25T11:57:07.704Z,2.77
2023-04-25T11:59:35.784Z,2.70
2023-04-25T12:02:03.973Z,3.30
2023-04-25T12:04:34.606Z,3.80
2023-04-25T12:07:03.599Z,3.13
2023-04-25T12:09:33.210Z,3.53
2023-04-25T12:12:04.692Z,2.47
2023-04-25T12:14:33.962Z,2.10
2023-04-25T12:17:03.625Z,2.33
2023-04-25T12:19:36.800Z,2.37
2023-04-25T12:22:06.237Z,2.50
2023-04-25T12:24:39.087Z,4.63
2023-04-25T12:27:09.230Z,3.23
2023-04-25T12:29:49.592Z,2.27
2023-04-25T12:32:18.815Z,2.47
2023-04-25T12:34:48.276Z,1.77
2023-04-25T12:37:16.725Z,5.00
2023-04-25T12:39:45.132Z,3.00
2023-04-25T12:42:13.862Z,2.93
2023-04-25T12:44:42.749Z,1.70
2023-04-25T12:47:11.113Z,3.20
2023-04-25T12:49:39.377Z,3.47
2023-04-25T12:52:08.757Z,2.10
2023-04-25T12:54:36.983Z,2.47
2023-04-25T12:57:06.675Z,1.80
2023-04-25T12:59:34.714Z,2.50
2023-04-25T13:02:02.817Z,2.30
2023-04-25T13:04:31.068Z,2.60
2023-04-25T13:06:59.253Z,2.07
2023-04-25T13:09:28.767Z,2.07
2023-04-25T13:11:58.347Z,2.00
2023-04-25T13:14:27.334Z,2.10
2023-04-25T13:16:56.021Z,2.37
2023-04-25T13:19:24.183Z,3.40
2023-04-25T13:21:52.653Z,3.03
2023-04-25T13:24:20.945Z,2.17
2023-04-25T13:26:50.357Z,2.63
2023-04-25T13:29:18.394Z,2.33
2023-04-25T13:31:46.464Z,2.13
2023-04-25T13:34:15.561Z,2.40
2023-04-25T13:36:43.761Z,2.43
2023-04-25T13:39:13.218Z,2.30
2023-04-25T13:41:41.429Z,6.00
2023-04-25T13:44:11.503Z,3.17
2023-04-25T13:49:13.327Z,1.80
2023-04-25T13:51:43.328Z,1.30
2023-04-25T13:54:11.658Z,1.40
2023-04-25T13:56:39.691Z,1.70
2023-04-25T13:59:07.958Z,1.73
2023-04-25T14:01:37.884Z,1.03
2023-04-25T14:04:06.208Z,0.93
2023-04-25T14:06:34.682Z,1.47
2023-04-25T14:09:02.916Z,1.00
2023-04-25T14:11:30.989Z,1.23
2023-04-25T14:13:59.042Z,0.93
2023-04-25T14:16:27.282Z,1.37
2023-04-25T14:18:56.809Z,1.00
2023-04-25T14:21:24.842Z,1.10
2023-04-25T14:23:53.474Z,1.40
2023-04-25T14:26:22.085Z,1.40
2023-04-25T14:28:50.086Z,1.80
2023-04-25T14:31:18.243Z,1.87
2023-04-25T14:33:47.539Z,2.47
2023-04-25T14:36:17.165Z,16.47
2023-04-25T14:38:45.210Z,12.63
2023-04-25T14:41:13.237Z,4.83
2023-04-25T14:43:42.522Z,2.80
2023-04-25T14:46:12.506Z,2.57
2023-04-25T14:48:40.932Z,1.97
2023-04-25T14:51:09.022Z,2.30
2023-04-25T14:53:38.432Z,1.77
2023-04-25T14:56:08.272Z,2.00
2023-04-25T14:58:36.440Z,2.10
2023-04-25T15:01:04.605Z,1.60
2023-04-25T15:03:33.068Z,2.13
2023-04-25T15:06:01.415Z,2.27
2023-04-25T15:08:29.538Z,1.67
2023-04-25T15:10:59.510Z,1.90
2023-04-25T15:13:27.912Z,2.33
2023-04-25T15:15:56.518Z,2.43
2023-04-25T15:18:25.142Z,2.20
2023-04-25T15:20:54.104Z,2.00
2023-04-25T15:23:23.059Z,2.10
2023-04-25T15:25:53.160Z,2.53
2023-04-25T15:28:23.075Z,3.03
2023-04-25T15:30:51.479Z,2.53
2023-04-25T15:33:20.028Z,3.50
2023-04-25T15:35:48.133Z,3.33
2023-04-25T15:38:16.334Z,2.70
2023-04-25T15:40:45.530Z,3.97
2023-04-25T15:43:16.177Z,4.07
2023-04-25T15:45:46.070Z,3.10
2023-04-25T15:48:14.424Z,4.90
2023-04-25T15:50:43.181Z,1.70
2023-04-25T15:53:12.392Z,1.90
2023-04-25T15:55:40.468Z,1.80
2023-04-25T15:58:11.371Z,2.00
2023-04-25T16:00:40.742Z,3.07
2023-04-25T16:03:10.828Z,2.47
2023-04-25T16:05:39.493Z,3.10
2023-04-25T16:08:07.554Z,3.57
2023-04-25T16:10:35.618Z,4.47
2023-04-25T16:13:03.909Z,3.33
2023-04-25T16:15:35.529Z,4.20
2023-04-25T16:18:03.901Z,4.80
2023-04-25T16:20:33.593Z,5.20
2023-04-25T16:23:02.272Z,4.63
2023-04-25T16:25:30.332Z,3.20
2023-04-25T16:27:58.283Z,4.03
2023-04-25T16:30:26.834Z,3.93
2023-04-25T16:32:57.692Z,3.47
2023-04-25T16:35:26.156Z,3.20
2023-04-25T16:37:55.686Z,2.70
2023-04-25T16:40:23.991Z,3.23
2023-04-25T16:42:52.148Z,3.00
2023-04-25T16:45:20.375Z,3.20
2023-04-25T16:47:48.549Z,3.53
2023-04-25T16:50:17.010Z,3.97
2023-04-25T16:52:45.053Z,3.23
2023-04-25T16:55:14.571Z,3.57
2023-04-25T16:57:42.676Z,3.03
2023-04-25T17:00:13.395Z,3.33
2023-04-25T17:02:41.574Z,3.40
2023-04-25T17:05:10.649Z,4.20
2023-04-25T17:07:38.812Z,8.43
2023-04-25T17:10:07.573Z,3.87
2023-04-25T17:12:37.138Z,5.33
2023-04-25T17:15:06.638Z,4.27
2023-04-25T17:17:34.737Z,4.80
2023-04-25T17:20:05.914Z,4.50
2023-04-25T17:22:35.163Z,4.93
2023-04-25T17:25:03.350Z,5.07
2023-04-25T17:27:31.702Z,5.17
2023-04-25T17:30:03.542Z,6.17
2023-04-25T17:32:32.031Z,5.60
2023-04-25T17:35:00.331Z,5.13
2023-04-25T17:37:28.879Z,6.33
2023-04-25T17:39:57.416Z,7.67
2023-04-25T17:42:25.568Z,6.07
2023-04-25T17:44:55.423Z,7.40
2023-04-25T17:47:25.010Z,5.80
2023-04-25T17:49:53.190Z,5.33
2023-04-25T17:52:21.983Z,6.53
2023-04-25T17:54:50.075Z,6.53
2023-04-25T17:57:18.286Z,10.63
2023-04-25T17:59:46.360Z,6.37
2023-04-25T18:02:14.537Z,9.67
2023-04-25T18:04:44.400Z,11.90
2023-04-25T18:07:12.625Z,8.07
2023-04-25T18:09:41.066Z,7.33
2023-04-25T18:12:09.451Z,6.63
2023-04-25T18:14:37.543Z,8.27
2023-04-25T18:17:07.201Z,5.90
2023-04-25T18:19:35.499Z,5.83
2023-04-25T18:22:04.994Z,5.70
2023-04-25T18:24:33.510Z,4.37
2023-04-25T18:27:05.851Z,4.43
2023-04-25T18:29:34.401Z,4.37
2023-04-25T18:32:04.780Z,5.23
2023-04-25T18:34:34.056Z,11.17
2023-04-25T18:37:02.286Z,12.07
2023-04-25T18:39:31.750Z,12.77
2023-04-25T18:42:04.722Z,9.57
2023-04-25T18:44:40.392Z,5.43
2023-04-25T18:47:09.175Z,5.20
2023-04-25T18:49:38.152Z,5.53
2023-04-25T18:52:08.590Z,3.73
2023-04-25T18:54:38.196Z,4.53
2023-04-25T18:57:06.713Z,8.77
2023-04-25T18:59:34.919Z,13.43
2023-04-25T19:02:05.346Z,5.43
2023-04-25T19:04:33.962Z,30.40
2023-04-25T19:07:02.476Z,24.67
2023-04-25T19:09:30.556Z,7.87
2023-04-25T19:12:00.027Z,5.13
2023-04-25T19:14:28.709Z,6.20
2023-04-25T19:16:59.344Z,11.63
2023-04-25T19:19:28.147Z,4.93
2023-04-25T19:21:56.443Z,7.23
2023-04-25T19:24:24.608Z,6.10
2023-04-25T19:26:52.835Z,4.17
2023-04-25T19:29:22.316Z,11.27
2023-04-25T19:31:50.516Z,10.70
2023-04-25T19:34:18.651Z,31.57
2023-04-25T19:36:46.788Z,7.50
2023-04-25T19:39:14.938Z,8.53
2023-04-25T19:41:43.129Z,22.63
2023-04-25T19:44:11.191Z,53.00
2023-04-25T19:46:42.141Z,18.30
2023-04-25T19:49:10.404Z,16.43
2023-04-25T19:51:38.657Z,25.30
2023-04-25T19:54:06.976Z,62.40
2023-04-25T19:56:35.182Z,14.50
2023-04-25T19:59:03.208Z,7.73
2023-04-25T20:01:31.566Z,59.70
2023-04-25T20:04:01.671Z,42.73
2023-04-25T20:06:29.839Z,53.60
2023-04-25T20:08:58.076Z,9.93
2023-04-25T20:11:28.592Z,6.87
2023-04-25T20:13:57.420Z,26.70
2023-04-25T20:16:25.497Z,29.97
2023-04-25T20:18:54.349Z,9.47
2023-04-25T20:21:24.794Z,11.40
2023-04-25T20:23:52.781Z,8.23
2023-04-25T20:26:22.661Z,10.63
2023-04-25T20:28:51.527Z,8.67
2023-04-25T20:31:20.280Z,10.73
2023-04-25T20:33:48.629Z,12.67
2023-04-25T20:36:16.641Z,7.87
2023-04-25T20:38:46.120Z,7.20
2023-04-25T20:41:14.269Z,8.80
2023-04-25T20:43:42.818Z,8.77
2023-04-25T20:46:11.390Z,9.70
2023-04-25T20:48:39.630Z,7.87
2023-04-25T20:51:08.844Z,17.80
2023-04-25T20:53:36.950Z,10.13
2023-04-25T20:56:06.720Z,7.33
2023-04-25T20:58:34.711Z,9.83
2023-04-25T21:01:04.319Z,9.23
2023-04-25T21:03:32.697Z,7.90
2023-04-25T21:06:01.644Z,7.77
2023-04-25T21:08:29.676Z,9.63
2023-04-25T21:10:57.755Z,9.70
2023-04-25T21:13:28.881Z,7.77
2023-04-25T21:15:58.230Z,8.67
2023-04-25T21:18:26.746Z,7.53
2023-04-25T21:20:54.901Z,7.93
2023-04-25T21:23:22.984Z,8.50
2023-04-25T21:25:51.967Z,8.07
2023-04-25T21:28:20.086Z,9.53
2023-04-25T21:30:49.495Z,10.77
2023-04-25T21:33:17.661Z,7.40
2023-04-25T21:35:46.162Z,11.03
2023-04-25T21:38:15.502Z,7.80
2023-04-25T21:40:43.703Z,9.00
2023-04-25T21:43:12.165Z,8.20
2023-04-25T21:46:05.618Z,9.80
2023-04-25T21:48:29.875Z,9.80
2023-04-25T21:50:58.017Z,10.73
2023-04-25T21:53:26.819Z,8.93
2023-04-25T21:55:55.290Z,8.27
2023-04-25T21:58:23.584Z,11.53
2023-04-25T22:00:51.806Z,11.83
2023-04-25T22:03:20.252Z,17.07
2023-04-25T22:05:49.919Z,11.37
2023-04-25T22:08:17.889Z,10.20
2023-04-25T22:10:46.346Z,9.97
2023-04-25T22:13:15.265Z,10.40
2023-04-25T22:15:43.338Z,10.43
2023-04-25T22:18:13.386Z,14.50
2023-04-25T22:20:41.501Z,12.50
2023-04-25T22:23:11.998Z,16.20
2023-04-25T22:25:40.485Z,10.97
2023-04-25T22:28:08.493Z,10.60
2023-04-25T22:30:37.164Z,11.50
2023-04-25T22:33:05.347Z,11.20
2023-04-25T22:35:33.438Z,15.67
2023-04-25T22:38:01.647Z,22.50
2023-04-25T22:40:31.025Z,23.37
2023-04-25T22:42:59.470Z,14.73
2023-04-25T22:45:27.535Z,15.97
2023-04-25T22:47:55.705Z,12.60
2023-04-25T22:50:23.935Z,12.07
2023-04-25T22:52:51.942Z,12.53
2023-04-25T22:55:19.874Z,11.97
2023-04-25T22:57:49.213Z,11.13
2023-04-25T23:00:20.031Z,12.67
2023-04-25T23:02:49.736Z,12.77
2023-04-25T23:05:18.383Z,11.97
2023-04-25T23:07:46.472Z,12.07
2023-04-25T23:10:14.867Z,15.33
2023-04-25T23:12:43.092Z,14.57
2023-04-25T23:15:13.643Z,13.33
2023-04-25T23:17:42.232Z,14.23
2023-04-25T23:20:12.059Z,13.63
2023-04-25T23:22:40.584Z,13.27
2023-04-25T23:25:10.268Z,11.10
2023-04-25T23:27:38.450Z,11.90
2023-04-25T23:30:07.604Z,10.70
2023-04-25T23:32:37.035Z,10.67
2023-04-25T23:35:06.138Z,10.53
2023-04-25T23:37:34.646Z,10.90
2023-04-25T23:40:08.374Z,13.07
2023-04-25T23:42:36.663Z,9.90
2023-04-25T23:45:06.045Z,10.30
2023-04-25T23:47:34.395Z,11.70
2023-04-25T23:50:04.188Z,10.90
2023-04-25T23:52:32.185Z,10.70
2023-04-25T23:55:00.312Z,9.93
2023-04-25T23:57:29.139Z,11.93
2023-04-25T23:59:57.410Z,14.73
